createdAt,value
2023-01-10T00:10:40.353Z,6.80
2023-01-10T00:25:42.500Z,7.00
2023-01-10T00:40:45.519Z,7.00
2023-01-10T00:55:47.718Z,7.00
2023-01-10T01:10:49.742Z,7.00
2023-01-10T01:25:52.834Z,6.80
2023-01-10T01:40:54.889Z,6.90
2023-01-10T01:56:01.219Z,6.70
2023-01-10T02:11:09.443Z,6.50
2023-01-10T02:26:59.050Z,6.40
2023-01-10T02:42:18.929Z,6.30
2023-01-10T02:58:18.865Z,6.40
2023-01-10T03:13:42.289Z,6.20
2023-01-10T03:28:55.024Z,6.30
2023-01-10T03:44:36.003Z,6.30
2023-01-10T03:59:37.926Z,6.40
2023-01-10T04:14:39.915Z,6.50
2023-01-10T04:29:41.938Z,6.40
2023-01-10T04:44:43.900Z,6.40
2023-01-10T04:59:45.828Z,6.30
2023-01-10T05:14:47.804Z,6.30
2023-01-10T05:29:49.778Z,6.30
2023-01-10T05:44:51.712Z,6.20
2023-01-10T05:59:53.715Z,6.10
2023-01-10T06:14:55.671Z,6.00
2023-01-10T06:29:59.333Z,6.30
2023-01-10T06:45:01.320Z,6.20
2023-01-10T07:00:05.979Z,6.10
2023-01-10T07:15:08.640Z,6.00
2023-01-10T07:30:11.221Z,6.00
2023-01-10T07:45:13.332Z,6.00
2023-01-10T08:00:18.600Z,6.10
2023-01-10T08:15:20.949Z,6.20
2023-01-10T08:30:23.599Z,6.40
2023-01-10T08:45:25.859Z,6.40
2023-01-10T09:00:28.594Z,6.30
2023-01-10T09:15:35.506Z,6.70
2023-01-10T09:30:37.740Z,6.70
2023-01-10T09:46:12.722Z,6.80
2023-01-10T10:01:26.001Z,6.80
2023-01-10T10:16:58.735Z,6.90
2023-01-10T10:32:12.752Z,7.10
2023-01-10T10:47:23.456Z,7.60
2023-01-10T11:02:32.128Z,7.70
2023-01-10T11:17:41.018Z,7.70
2023-01-10T11:32:54.750Z,7.60
2023-01-10T11:48:26.982Z,7.70
2023-01-10T12:03:38.709Z,7.50
2023-01-10T12:18:40.964Z,7.50
2023-01-10T12:34:14.993Z,7.60
2023-01-10T12:49:25.018Z,7.60
2023-01-10T13:04:27.799Z,7.60
2023-01-10T13:19:29.861Z,7.50
2023-01-10T13:34:36.480Z,7.50
2023-01-10T13:49:41.923Z,7.50
2023-01-10T14:04:51.061Z,7.50
2023-01-10T14:20:01.640Z,7.60
2023-01-10T14:35:07.042Z,7.30
2023-01-10T14:50:33.460Z,7.20
2023-01-10T15:05:50.095Z,7.20
2023-01-10T15:20:52.515Z,7.10
2023-01-10T15:35:54.828Z,6.90
2023-01-10T15:51:01.844Z,7.10
2023-01-10T16:06:09.168Z,7.00
2023-01-10T16:21:13.777Z,7.00
2023-01-10T16:36:19.276Z,6.90
2023-01-10T16:51:28.490Z,6.90
2023-01-10T17:06:30.411Z,7.10
2023-01-10T17:21:32.354Z,7.20
2023-01-10T17:36:38.784Z,7.20
2023-01-10T17:51:40.721Z,7.00
2023-01-10T18:06:42.704Z,6.80
2023-01-10T18:21:44.727Z,6.80
2023-01-10T18:36:46.693Z,6.90
2023-01-10T18:51:48.600Z,6.80
2023-01-10T19:06:50.625Z,6.80
2023-01-10T19:21:52.851Z,6.50
2023-01-10T19:36:54.803Z,6.50
2023-01-10T19:51:56.795Z,6.70
2023-01-10T20:06:58.912Z,6.70
2023-01-10T20:22:00.889Z,6.70
2023-01-10T20:37:03.040Z,6.80
2023-01-10T20:52:05.074Z,6.80
2023-01-10T21:07:07.269Z,6.80
2023-01-10T21:22:10.036Z,6.80
2023-01-10T21:37:11.980Z,6.80
2023-01-10T21:52:14.446Z,6.80
2023-01-10T22:07:17.014Z,6.80
2023-01-10T22:22:19.082Z,6.70
2023-01-10T22:37:21.067Z,6.60
2023-01-10T22:52:23.021Z,6.60
2023-01-10T23:07:24.983Z,6.60
2023-01-10T23:22:26.943Z,6.50
2023-01-10T23:37:28.913Z,6.30
2023-01-10T23:52:31.047Z,6.20
